Time;durP1;ratioP1;P1;durP2;ratioP2;P2;SDS_P1;SDS_P2;PMS_P1;PMS_P2;Temp;Humidity;BMP_temperature;BMP_pressure;BME280_temperature;BME280_humidity;BME280_pressure;Samples;Min_cycle;Max_cycle;Signal;HPM_P1;HPM_P2
2022/11/02 00:01:28;;;;;;;12.30;8.23;;;12.30;99.90;;;;;;4972019;28;20409;-67
2022/11/02 00:03:54;;;;;;;16.57;7.37;;;12.20;99.90;;;;;;4970969;28;20489;-67
2022/11/02 00:06:20;;;;;;;21.57;7.73;;;12.20;99.90;;;;;;4972828;28;20421;-67
2022/11/02 00:08:45;;;;;;;18.87;6.87;;;12.20;99.90;;;;;;4972509;28;20328;-66
2022/11/02 00:11:11;;;;;;;9.77;5.93;;;12.20;7.10;;;;;;4971664;28;20311;-66
2022/11/02 00:13:37;;;;;;;18.33;6.30;;;12.00;1.00;;;;;;4972340;28;20185;-66
2022/11/02 00:16:06;;;;;;;23.17;8.60;;;12.00;1.00;;;;;;4984852;28;20259;-66
2022/11/02 00:18:33;;;;;;;26.03;7.07;;;12.00;1.00;;;;;;4991562;28;20195;-66
2022/11/02 00:21:00;;;;;;;22.57;7.30;;;12.00;1.00;;;;;;4991137;28;20417;-66
2022/11/02 00:23:26;;;;;;;17.27;6.97;;;11.90;1.00;;;;;;4991569;28;20435;-66
2022/11/02 00:25:53;;;;;;;11.90;6.50;;;12.00;1.00;;;;;;4991889;28;20404;-66
2022/11/02 00:28:19;;;;;;;18.20;7.00;;;12.00;1.00;;;;;;4991610;28;20790;-66
2022/11/02 00:30:45;;;;;;;15.40;6.90;;;12.00;1.00;;;;;;4990958;28;20444;-66
2022/11/02 00:33:10;;;;;;;9.20;6.30;;;11.90;1.00;;;;;;4991146;28;20304;-66
2022/11/02 00:35:36;;;;;;;8.43;6.07;;;11.90;1.00;;;;;;4991580;28;20191;-66
2022/11/02 00:38:02;;;;;;;10.93;6.40;;;12.00;99.90;;;;;;4991316;28;20196;-66
2022/11/02 00:40:28;;;;;;;9.00;6.33;;;12.00;99.90;;;;;;4990662;28;20431;-66
2022/11/02 00:42:54;;;;;;;11.50;7.00;;;11.90;99.90;;;;;;4990974;28;20412;-67
2022/11/02 00:45:21;;;;;;;25.23;9.47;;;12.00;99.90;;;;;;4991252;28;20192;-66
2022/11/02 00:47:47;;;;;;;9.03;6.27;;;12.00;99.90;;;;;;4990944;28;20247;-66
2022/11/02 00:50:12;;;;;;;10.00;7.00;;;12.00;99.90;;;;;;4991004;28;21122;-66
2022/11/02 00:52:39;;;;;;;10.90;7.10;;;11.70;1.00;;;;;;4990856;28;20173;-66
2022/11/02 00:55:07;;;;;;;16.90;9.47;;;11.80;99.90;;;;;;4991079;28;20185;-66
2022/11/02 00:57:33;;;;;;;20.97;11.83;;;11.90;99.90;;;;;;4991120;28;20877;-66
2022/11/02 00:59:59;;;;;;;14.80;9.73;;;12.00;1.00;;;;;;4990224;28;20412;-66
2022/11/02 01:02:25;;;;;;;24.23;10.57;;;11.90;1.00;;;;;;4989875;28;20474;-66
2022/11/02 01:04:51;;;;;;;13.97;9.90;;;11.90;1.00;;;;;;4990943;28;20231;-66
2022/11/02 01:07:17;;;;;;;13.87;9.20;;;11.90;1.00;;;;;;4990982;28;20456;-66
2022/11/02 01:09:43;;;;;;;13.23;9.53;;;11.90;1.00;;;;;;4991258;28;20188;-66
2022/11/02 01:12:08;;;;;;;17.83;9.93;;;11.80;1.00;;;;;;4990270;28;20168;-66
2022/11/02 01:14:34;;;;;;;12.57;10.30;;;11.70;1.00;;;;;;4990896;28;20196;-66
2022/11/02 01:17:00;;;;;;;10.93;8.23;;;11.80;1.00;;;;;;4971529;28;20197;-65
2022/11/02 01:19:25;;;;;;;21.37;9.80;;;11.80;1.00;;;;;;4971319;28;20165;-65
2022/11/02 01:21:51;;;;;;;14.07;10.40;;;11.80;1.00;;;;;;4970668;28;20705;-65
2022/11/02 01:24:17;;;;;;;13.70;10.03;;;11.80;1.00;;;;;;4971433;28;20302;-65
2022/11/02 01:26:42;;;;;;;12.50;8.83;;;11.80;1.00;;;;;;4971527;28;20172;-65
2022/11/02 01:29:08;;;;;;;15.57;9.73;;;11.70;1.00;;;;;;4971027;28;20170;-65
2022/11/02 01:31:34;;;;;;;17.47;8.20;;;11.80;1.00;;;;;;4970671;28;20292;-65
2022/11/02 01:33:59;;;;;;;21.10;9.73;;;11.80;1.00;;;;;;4970912;28;20209;-65
2022/11/02 01:36:25;;;;;;;18.33;8.00;;;11.80;1.00;;;;;;4971368;28;20180;-65
2022/11/02 01:38:51;;;;;;;11.30;8.63;;;11.70;1.00;;;;;;4971219;28;20625;-65
2022/11/02 01:41:17;;;;;;;10.47;8.70;;;11.60;1.00;;;;;;4970577;28;20185;-65
2022/11/02 01:43:45;;;;;;;8.80;7.40;;;11.70;1.00;;;;;;4971175;28;20220;-65
2022/11/02 01:46:11;;;;;;;8.43;7.40;;;11.70;1.00;;;;;;4971171;28;20467;-66
2022/11/02 01:48:41;;;;;;;11.40;8.60;;;11.70;1.00;;;;;;4970900;28;20409;-65
2022/11/02 01:51:18;;;;;;;29.33;9.30;;;11.70;1.00;;;;;;4969035;28;20210;-65
2022/11/02 01:53:46;;;;;;;7.80;6.90;;;11.60;1.00;;;;;;4971389;28;20772;-65
2022/11/02 01:56:14;;;;;;;12.40;7.40;;;11.60;1.00;;;;;;4971168;28;20609;-65
2022/11/02 01:58:42;;;;;;;12.97;7.20;;;11.50;1.00;;;;;;4970882;28;20890;-65
2022/11/02 02:01:08;;;;;;;30.13;8.73;;;11.50;1.00;;;;;;4969833;28;20439;-65
2022/11/02 02:03:35;;;;;;;19.20;7.07;;;11.50;1.00;;;;;;4970363;28;20554;-66
2022/11/02 02:06:11;;;;;;;8.27;6.40;;;11.50;1.00;;;;;;4971089;28;20915;-65
2022/11/02 02:08:50;;;;;;;8.53;7.30;;;11.50;1.00;;;;;;4970645;28;20425;-66
2022/11/02 02:11:36;;;;;;;8.30;7.40;;;11.50;1.00;;;;;;4972569;28;20564;-66
2022/11/02 02:14:07;;;;;;;7.97;6.80;;;11.40;1.00;;;;;;4974963;28;20526;-66
2022/11/02 02:16:59;;;;;;;7.63;6.60;;;11.40;1.00;;;;;;4974942;28;20420;-65
2022/11/02 02:19:47;;;;;;;11.87;7.87;;;11.30;1.00;;;;;;4974498;28;20451;-68
2022/11/02 02:22:21;;;;;;;11.60;7.10;;;11.30;1.00;;;;;;4973778;28;20968;-66
2022/11/02 02:25:06;;;;;;;34.73;9.00;;;11.30;1.00;;;;;;4974845;28;20487;-66
2022/11/02 02:28:08;;;;;;;17.50;7.73;;;11.30;1.00;;;;;;4974498;28;20412;-66
2022/11/02 02:31:07;;;;;;;7.03;6.13;;;11.30;1.00;;;;;;4973589;28;20452;-66
2022/11/02 02:34:05;;;;;;;10.00;7.73;;;11.30;1.00;;;;;;4999481;23;20449;-65
2022/11/02 02:36:54;;;;;;;10.20;6.57;;;11.20;1.00;;;;;;4976079;28;20488;-68
2022/11/02 02:39:32;;;;;;;10.60;7.73;;;11.20;1.00;;;;;;4955638;28;20402;-68
2022/11/02 02:42:06;;;;;;;10.30;7.73;;;11.30;1.00;;;;;;4954625;28;20933;-67
2022/11/02 02:44:35;;;;;;;23.07;8.30;;;11.10;1.00;;;;;;4947543;28;20533;-67
2022/11/02 02:47:09;;;;;;;11.07;6.60;;;11.10;1.00;;;;;;4935881;29;20395;-68
2022/11/02 02:49:41;;;;;;;7.00;5.90;;;11.10;1.00;;;;;;4936225;29;20399;-66
2022/11/02 02:52:08;;;;;;;9.23;7.10;;;11.10;1.00;;;;;;4935315;29;20419;-66
2022/11/02 02:54:38;;;;;;;10.73;6.57;;;11.10;1.00;;;;;;4936089;29;20423;-65
2022/11/02 02:57:11;;;;;;;7.67;6.70;;;11.10;99.90;;;;;;4935813;29;20563;-66
2022/11/02 02:59:45;;;;;;;7.83;6.70;;;11.20;99.90;;;;;;4936116;29;20987;-67
2022/11/02 03:02:31;;;;;;;8.10;6.10;;;11.20;99.90;;;;;;4934625;29;20413;-68
2022/11/02 03:04:57;;;;;;;10.73;6.13;;;11.10;99.90;;;;;;4935770;29;21023;-67
2022/11/02 03:07:29;;;;;;;6.90;5.90;;;11.00;99.90;;;;;;4935640;29;20438;-66
2022/11/02 03:10:08;;;;;;;19.13;7.67;;;11.00;99.90;;;;;;4936258;29;20198;-66
2022/11/02 03:12:36;;;;;;;17.63;6.60;;;11.10;99.90;;;;;;4935715;29;20911;-67
2022/11/02 03:15:17;;;;;;;13.43;6.93;;;11.10;99.90;;;;;;4936695;29;20453;-67
2022/11/02 03:18:01;;;;;;;13.23;7.17;;;11.10;99.90;;;;;;4935997;29;20406;-67
2022/11/02 03:20:47;;;;;;;24.10;7.77;;;11.00;99.90;;;;;;4936244;29;20960;-67
2022/11/02 03:23:32;;;;;;;15.23;7.70;;;11.00;99.90;;;;;;4934539;29;20419;-67
2022/11/02 03:26:12;;;;;;;14.97;6.87;;;11.00;99.90;;;;;;4935924;29;20410;-68
2022/11/02 03:28:37;;;;;;;17.23;6.70;;;10.90;99.90;;;;;;4935360;29;20479;-67
2022/11/02 03:31:19;;;;;;;17.70;5.73;;;10.90;99.90;;;;;;4934486;29;20478;-67
2022/11/02 03:34:02;;;;;;;8.30;6.40;;;10.90;99.90;;;;;;4934706;29;20278;-67
2022/11/02 03:36:36;;;;;;;8.47;5.43;;;10.90;99.90;;;;;;4935582;29;20443;-67
2022/11/02 03:39:10;;;;;;;5.20;4.70;;;10.90;99.90;;;;;;4935058;29;20403;-66
2022/11/02 03:41:39;;;;;;;7.17;5.97;;;10.90;99.90;;;;;;4934640;29;20742;-66
2022/11/02 03:44:12;;;;;;;11.40;5.10;;;10.90;99.90;;;;;;4935115;29;20431;-66
2022/11/02 03:46:41;;;;;;;8.37;5.80;;;11.00;99.90;;;;;;4935400;29;20411;-67
2022/11/02 03:49:10;;;;;;;15.97;5.47;;;11.00;99.90;;;;;;4934690;29;20414;-67
2022/11/02 03:51:39;;;;;;;39.27;7.80;;;11.00;99.90;;;;;;4948866;29;20485;-67
2022/11/02 03:54:12;;;;;;;10.03;5.57;;;11.00;99.90;;;;;;4935320;29;20930;-67
2022/11/02 03:56:42;;;;;;;14.80;4.93;;;11.00;99.90;;;;;;4935009;29;20423;-67
2022/11/02 03:59:08;;;;;;;8.90;4.63;;;11.10;99.90;;;;;;4934819;29;20451;-67
2022/11/02 04:01:41;;;;;;;9.17;4.50;;;11.00;99.90;;;;;;4934420;28;20443;-68
2022/11/02 04:04:07;;;;;;;13.47;5.13;;;11.00;99.90;;;;;;4934613;29;20202;-67
2022/11/02 04:06:34;;;;;;;14.90;5.30;;;11.00;99.90;;;;;;4935038;29;20991;-67
2022/11/02 04:09:00;;;;;;;7.27;5.00;;;11.00;99.90;;;;;;4935333;29;20293;-67
2022/11/02 04:19:39;;;;;;;13.37;5.13;;;11.10;99.90;;;;;;4938777;29;20454;-68
2022/11/02 04:25:14;;;;;;;8.53;5.03;;;11.20;99.90;;;;;;4975225;28;20258;-66
2022/11/02 04:27:44;;;;;;;12.57;4.63;;;11.10;46.60;;;;;;4973376;28;20405;-67
2022/11/02 04:30:10;;;;;;;5.90;5.13;;;11.20;1.00;;;;;;4952458;28;20516;-68
2022/11/02 04:35:21;;;;;;;4.80;3.80;;;11.20;1.00;;;;;;4934412;29;20481;-68
2022/11/02 04:40:31;;;;;;;8.40;4.60;;;11.10;1.00;;;;;;4933610;29;20249;-68
2022/11/02 04:42:57;;;;;;;7.70;3.83;;;11.10;1.00;;;;;;4934060;29;20415;-68
2022/11/02 04:45:23;;;;;;;10.33;4.50;;;11.20;1.00;;;;;;4933962;29;20285;-67
2022/11/02 04:47:48;;;;;;;7.70;4.47;;;11.10;1.00;;;;;;4933549;29;20185;-68
2022/11/02 04:50:14;;;;;;;7.20;4.37;;;11.20;1.00;;;;;;4933493;29;20203;-68
2022/11/02 04:52:40;;;;;;;5.27;4.30;;;11.20;1.00;;;;;;4933234;29;20644;-68
2022/11/02 04:55:06;;;;;;;48.50;9.40;;;11.10;1.00;;;;;;4933885;29;20577;-68
2022/11/02 04:57:32;;;;;;;26.83;5.30;;;11.10;1.00;;;;;;4933604;29;20183;-67
2022/11/02 04:59:57;;;;;;;15.03;5.83;;;11.20;1.00;;;;;;4933823;29;20413;-67
2022/11/02 05:02:23;;;;;;;7.20;3.93;;;11.10;1.00;;;;;;4932551;29;20166;-67
2022/11/02 05:04:49;;;;;;;15.90;5.27;;;11.00;1.00;;;;;;4932482;28;20206;-67
2022/11/02 05:07:14;;;;;;;31.30;8.90;;;10.90;1.00;;;;;;4915454;29;20183;-68
2022/11/02 05:09:43;;;;;;;24.80;6.53;;;10.90;90.20;;;;;;4922675;29;20183;-68
2022/11/02 05:12:08;;;;;;;14.93;5.90;;;10.80;95.30;;;;;;4932235;29;20171;-67
2022/11/02 05:14:34;;;;;;;16.03;5.33;;;10.80;99.90;;;;;;4930679;29;20494;-68
2022/11/02 05:17:00;;;;;;;13.80;4.67;;;10.90;99.90;;;;;;4914489;29;20164;-67
2022/11/02 05:19:26;;;;;;;17.67;6.43;;;10.90;99.90;;;;;;4913866;29;20961;-67
2022/11/02 05:21:51;;;;;;;7.60;4.93;;;10.90;99.90;;;;;;4913565;29;20255;-67
2022/11/02 05:24:17;;;;;;;24.83;5.53;;;10.80;99.90;;;;;;4914546;29;20199;-68
2022/11/02 05:26:43;;;;;;;11.67;4.87;;;10.80;99.90;;;;;;4914494;29;20187;-66
2022/11/02 05:29:08;;;;;;;18.93;5.73;;;10.80;99.90;;;;;;4914367;29;20172;-67
2022/11/02 05:31:34;;;;;;;29.37;5.63;;;10.80;99.90;;;;;;4913661;29;20711;-65
2022/11/02 05:34:00;;;;;;;13.87;5.37;;;10.80;99.90;;;;;;4913583;29;20282;-66
2022/11/02 05:36:25;;;;;;;12.00;6.10;;;10.80;99.90;;;;;;4912686;29;20176;-67
2022/11/02 05:38:53;;;;;;;39.80;9.43;;;10.80;99.90;;;;;;4913769;29;20579;-66
2022/11/02 05:41:18;;;;;;;26.93;8.40;;;10.80;99.90;;;;;;4913183;29;20175;-68
2022/11/02 05:43:44;;;;;;;31.80;9.80;;;10.80;99.90;;;;;;4913703;29;20412;-68
2022/11/02 05:46:10;;;;;;;13.33;6.13;;;10.80;99.90;;;;;;4925408;29;20183;-68
2022/11/02 05:48:35;;;;;;;40.40;11.90;;;10.80;99.90;;;;;;4929467;29;20190;-66
2022/11/02 05:51:03;;;;;;;12.73;5.60;;;10.70;99.90;;;;;;4923965;29;20263;-69
2022/11/02 05:53:36;;;;;;;94.30;14.47;;;10.70;99.90;;;;;;4926371;29;20814;-67
2022/11/02 05:56:04;;;;;;;50.90;10.03;;;10.80;99.90;;;;;;4928817;29;20439;-68
2022/11/02 05:58:30;;;;;;;123.83;16.40;;;10.80;99.90;;;;;;4927442;29;20465;-68
2022/11/02 06:01:00;;;;;;;48.70;8.80;;;10.80;99.90;;;;;;4926915;29;20928;-67
2022/11/02 06:03:26;;;;;;;72.70;12.60;;;10.80;99.90;;;;;;4930959;29;20431;-67
2022/11/02 06:05:59;;;;;;;45.57;8.90;;;10.80;99.90;;;;;;4931689;29;20546;-67
2022/11/02 06:08:25;;;;;;;19.80;6.00;;;10.80;99.90;;;;;;4928030;29;20186;-68
2022/11/02 06:10:51;;;;;;;190.90;28.33;;;10.70;99.90;;;;;;4930310;29;20462;-69
2022/11/02 06:13:17;;;;;;;53.00;10.70;;;10.70;99.90;;;;;;4929268;29;20514;-69
2022/11/02 06:15:42;;;;;;;152.03;17.23;;;10.80;99.90;;;;;;4927896;29;20199;-64
2022/11/02 06:18:08;;;;;;;34.53;7.67;;;10.80;99.90;;;;;;4923120;29;20790;-68
2022/11/02 06:20:34;;;;;;;30.47;6.40;;;10.70;99.90;;;;;;4928632;29;20186;-68
2022/11/02 06:23:00;;;;;;;9.50;5.30;;;10.70;99.90;;;;;;4933202;29;20274;-71
2022/11/02 06:25:25;;;;;;;7.33;4.50;;;10.70;99.90;;;;;;4933530;29;20219;-69
2022/11/02 06:27:54;;;;;;;8.00;4.83;;;10.70;99.90;;;;;;4929941;29;20198;-66
2022/11/02 06:30:20;;;;;;;7.30;6.70;;;10.80;99.90;;;;;;4938818;29;20273;-67
2022/11/02 06:32:50;;;;;;;6.67;6.03;;;10.80;99.90;;;;;;4940061;29;21680;-69
2022/11/02 06:35:17;;;;;;;7.57;5.30;;;10.70;99.90;;;;;;4932196;29;20211;-69
2022/11/02 06:37:44;;;;;;;23.40;6.73;;;10.80;99.90;;;;;;4927088;29;20495;-67
2022/11/02 06:40:10;;;;;;;13.23;6.30;;;10.90;99.90;;;;;;4934719;29;20521;-67
2022/11/02 06:42:36;;;;;;;6.43;4.50;;;11.00;99.90;;;;;;4934957;29;20434;-70
2022/11/02 06:45:03;;;;;;;9.70;4.30;;;10.90;99.90;;;;;;4922289;29;20450;-68
2022/11/02 06:47:31;;;;;;;5.80;5.10;;;10.90;99.90;;;;;;4918802;29;20684;-68
2022/11/02 06:49:57;;;;;;;7.60;4.50;;;10.80;99.90;;;;;;4932062;29;20458;-68
2022/11/02 06:52:23;;;;;;;7.97;5.07;;;10.90;99.90;;;;;;4936132;29;20433;-68
2022/11/02 06:54:48;;;;;;;7.57;5.20;;;10.90;99.90;;;;;;4936613;29;20499;-68
2022/11/02 06:57:14;;;;;;;8.20;5.67;;;11.00;67.50;;;;;;4939886;29;20179;-69
2022/11/02 06:59:40;;;;;;;10.17;6.10;;;10.90;99.90;;;;;;4940668;29;20700;-69
2022/11/02 07:02:07;;;;;;;7.20;5.10;;;10.90;99.90;;;;;;4937033;29;20202;-68
2022/11/02 07:04:32;;;;;;;7.20;5.43;;;11.00;99.90;;;;;;4937436;29;20198;-69
2022/11/02 07:06:58;;;;;;;9.63;5.20;;;11.00;99.90;;;;;;4936303;29;20435;-70
2022/11/02 07:09:23;;;;;;;6.90;5.47;;;11.10;99.90;;;;;;4936032;29;20576;-70
2022/11/02 07:11:49;;;;;;;24.43;8.00;;;11.20;99.90;;;;;;4937012;29;20217;-69
2022/11/02 07:14:15;;;;;;;40.50;10.73;;;11.30;27.30;;;;;;4935568;29;20198;-68
2022/11/02 07:16:40;;;;;;;36.47;10.37;;;11.50;1.00;;;;;;4935002;29;20323;-68
2022/11/02 07:19:06;;;;;;;22.33;9.47;;;11.50;1.00;;;;;;4929598;29;20602;-68
2022/11/02 07:21:32;;;;;;;50.43;12.83;;;11.60;1.00;;;;;;4937893;29;20178;-69
2022/11/02 07:23:57;;;;;;;16.97;7.83;;;12.50;1.00;;;;;;4935569;29;20214;-70
2022/11/02 07:26:24;;;;;;;25.70;8.93;;;14.70;99.90;;;;;;4932502;29;20185;-68
2022/11/02 07:28:50;;;;;;;35.00;7.63;;;16.80;1.00;;;;;;4929680;29;20183;-67
2022/11/02 07:31:16;;;;;;;20.60;6.87;;;18.40;1.00;;;;;;4925381;29;20494;-67
2022/11/02 07:33:41;;;;;;;31.17;8.90;;;18.80;99.90;;;;;;4941676;29;20199;-67
2022/11/02 07:36:07;;;;;;;30.43;6.77;;;18.30;99.90;;;;;;4923985;29;20172;-67
2022/11/02 07:38:33;;;;;;;15.30;7.50;;;18.70;99.90;;;;;;4938157;29;20183;-68
2022/11/02 07:40:59;;;;;;;32.87;8.20;;;18.40;99.90;;;;;;4939567;29;20179;-67
2022/11/02 07:43:24;;;;;;;73.67;11.70;;;18.40;99.90;;;;;;4937255;29;20179;-67
2022/11/02 07:45:50;;;;;;;43.63;8.17;;;19.00;99.90;;;;;;4936491;29;20199;-68
2022/11/02 07:48:16;;;;;;;44.97;8.27;;;19.50;99.90;;;;;;4937477;29;20198;-69
2022/11/02 07:50:41;;;;;;;33.20;8.40;;;19.60;99.90;;;;;;4936217;29;20241;-68
2022/11/02 07:53:08;;;;;;;16.73;6.70;;;19.20;99.90;;;;;;4934674;29;20191;-68
2022/11/02 07:55:34;;;;;;;44.77;9.77;;;18.90;99.90;;;;;;4917923;29;20191;-69
2022/11/02 07:58:06;;;;;;;21.63;7.57;;;18.80;99.90;;;;;;4927910;29;20510;-69
2022/11/02 08:00:36;;;;;;;20.23;7.33;;;18.70;99.90;;;;;;4920757;29;20616;-66
2022/11/02 08:03:03;;;;;;;21.87;7.10;;;17.70;99.90;;;;;;4933871;29;20916;-66
2022/11/02 08:05:30;;;;;;;28.63;9.07;;;16.60;99.90;;;;;;4929461;29;20518;-66
2022/11/02 08:08:05;;;;;;;28.53;7.67;;;16.50;99.90;;;;;;4930448;28;20443;-68
2022/11/02 08:10:32;;;;;;;17.80;6.47;;;16.30;99.90;;;;;;4927057;29;20486;-68
2022/11/02 08:12:58;;;;;;;27.50;8.60;;;15.90;99.90;;;;;;4929238;29;20418;-70
2022/11/02 08:15:24;;;;;;;49.17;8.47;;;17.20;99.90;;;;;;4925093;29;20463;-67
2022/11/02 08:18:07;;;;;;;29.27;8.60;;;18.80;99.90;;;;;;4927201;29;20659;-67
2022/11/02 08:20:35;;;;;;;35.67;8.03;;;19.90;99.90;;;;;;4918026;29;20759;-68
2022/11/02 08:23:02;;;;;;;44.20;10.57;;;20.10;99.90;;;;;;4936678;29;20458;-69
2022/11/02 08:25:27;;;;;;;19.70;7.50;;;20.40;99.90;;;;;;4926189;29;20498;-66
2022/11/02 08:27:58;;;;;;;21.30;6.87;;;20.10;99.90;;;;;;4932745;29;20482;-69
2022/11/02 08:30:33;;;;;;;16.33;7.23;;;20.20;99.90;;;;;;4930640;29;20207;-68
2022/11/02 08:33:06;;;;;;;21.43;7.77;;;21.20;99.90;;;;;;4932261;29;20439;-69
2022/11/02 08:35:33;;;;;;;12.73;6.80;;;22.00;99.90;;;;;;4930902;29;20474;-68
2022/11/02 08:37:59;;;;;;;24.67;7.00;;;21.30;99.90;;;;;;4931133;29;20435;-68
2022/11/02 08:40:25;;;;;;;178.23;21.53;;;20.40;99.90;;;;;;4927071;29;20523;-66
2022/11/02 08:43:06;;;;;;;54.70;11.50;;;19.50;99.90;;;;;;4919556;29;20184;-68
2022/11/02 08:45:33;;;;;;;88.63;14.13;;;18.90;99.90;;;;;;4919124;29;20505;-68
2022/11/02 08:47:59;;;;;;;57.20;11.90;;;18.80;99.90;;;;;;4933771;29;20419;-68
2022/11/02 08:50:25;;;;;;;44.53;9.77;;;18.10;99.90;;;;;;4926738;29;20947;-67
2022/11/02 08:52:51;;;;;;;13.20;6.73;;;17.20;99.90;;;;;;4926799;29;20183;-68
2022/11/02 08:55:17;;;;;;;18.23;6.13;;;16.60;99.90;;;;;;4930187;29;20454;-68
2022/11/02 08:57:44;;;;;;;47.00;11.57;;;16.10;99.90;;;;;;4927613;29;20183;-68
2022/11/02 09:00:10;;;;;;;22.70;6.40;;;16.10;99.90;;;;;;4929518;29;20643;-67
2022/11/02 09:02:35;;;;;;;49.37;10.97;;;15.90;99.90;;;;;;4925919;29;20465;-67
2022/11/02 09:05:01;;;;;;;96.57;13.07;;;15.70;1.00;;;;;;4927691;29;20462;-67
2022/11/02 09:07:27;;;;;;;114.87;17.80;;;15.40;1.00;;;;;;4920191;29;20179;-67
2022/11/02 09:09:53;;;;;;;49.43;8.73;;;15.20;1.00;;;;;;4917086;29;20682;-68
2022/11/02 09:12:19;;;;;;;43.73;9.70;;;15.30;1.00;;;;;;4926753;29;20210;-67
2022/11/02 09:14:45;;;;;;;31.63;7.77;;;15.60;1.00;;;;;;4938572;29;20476;-69
2022/11/02 09:17:10;;;;;;;57.90;9.43;;;15.80;1.00;;;;;;4931739;29;20195;-68
2022/11/02 09:19:36;;;;;;;25.40;6.83;;;15.90;1.00;;;;;;4928940;29;20265;-67
2022/11/02 09:22:02;;;;;;;18.67;5.40;;;15.80;1.00;;;;;;4929677;29;20652;-65
2022/11/02 09:24:27;;;;;;;20.40;5.97;;;15.70;1.00;;;;;;4924691;29;20284;-69
2022/11/02 09:26:53;;;;;;;22.13;6.03;;;15.80;1.00;;;;;;4930096;29;20198;-70
2022/11/02 09:29:19;;;;;;;65.00;9.80;;;15.90;1.00;;;;;;4927697;29;20454;-67
2022/11/02 09:31:47;;;;;;;92.57;12.23;;;16.00;1.00;;;;;;4932641;29;20758;-70
2022/11/02 09:34:13;;;;;;;35.87;7.93;;;15.80;1.00;;;;;;4931850;29;20226;-68
2022/11/02 09:36:39;;;;;;;30.30;6.80;;;15.60;1.00;;;;;;4931709;29;20431;-69
2022/11/02 09:39:05;;;;;;;19.03;6.17;;;15.80;1.00;;;;;;4940120;29;21074;-68
2022/11/02 09:41:31;;;;;;;19.17;5.30;;;16.00;1.00;;;;;;4930814;29;20194;-67
2022/11/02 09:44:08;;;;;;;17.37;4.70;;;16.00;1.00;;;;;;4927371;29;20463;-67
2022/11/02 09:46:37;;;;;;;9.63;4.30;;;16.10;1.00;;;;;;4930090;29;20184;-68
2022/11/02 09:49:09;;;;;;;6.40;4.17;;;16.00;1.00;;;;;;4914879;29;20419;-67
2022/11/02 09:51:41;;;;;;;16.13;5.00;;;15.90;1.00;;;;;;4920528;29;20460;-66
2022/11/02 09:54:07;;;;;;;22.53;5.97;;;15.70;1.00;;;;;;4914394;29;20424;-67
2022/11/02 09:56:34;;;;;;;32.00;6.70;;;15.60;1.00;;;;;;4914073;29;20412;-68
2022/11/02 09:59:03;;;;;;;21.50;6.03;;;15.60;1.00;;;;;;4914057;29;20688;-69
2022/11/02 10:02:04;;;;;;;30.40;7.57;;;15.60;1.00;;;;;;4915126;29;20422;-67
2022/11/02 10:05:06;;;;;;;16.20;5.63;;;15.70;1.00;;;;;;4928493;29;20446;-67
2022/11/02 10:08:20;;;;;;;139.40;14.40;;;15.60;1.00;;;;;;4915978;29;20483;-67
2022/11/02 10:11:12;;;;;;;77.60;12.97;;;15.60;1.00;;;;;;4923611;29;20553;-66
2022/11/02 10:13:41;;;;;;;164.13;19.40;;;15.70;1.00;;;;;;4921423;29;20423;-66
2022/11/02 10:16:24;;;;;;;62.60;10.27;;;15.70;1.00;;;;;;4931132;29;20461;-70
2022/11/02 10:18:53;;;;;;;117.70;14.33;;;15.70;1.00;;;;;;4928803;29;20449;-69
2022/11/02 10:21:40;;;;;;;38.83;6.37;;;15.80;1.00;;;;;;4928643;29;20439;-65
2022/11/02 10:24:26;;;;;;;7.47;3.73;;;15.80;1.00;;;;;;4929393;29;20462;-68
2022/11/02 10:26:58;;;;;;;62.17;7.37;;;15.90;1.00;;;;;;4926705;29;20461;-69
2022/11/02 10:29:38;;;;;;;4.03;2.30;;;16.10;1.00;;;;;;4930012;28;20469;-68
2022/11/02 10:32:04;;;;;;;7.83;2.30;;;16.20;99.90;;;;;;4932410;29;20442;-67
2022/11/02 10:34:32;;;;;;;9.27;3.23;;;16.30;99.90;;;;;;4930797;29;20467;-67
2022/11/02 10:37:18;;;;;;;4.90;2.23;;;16.10;99.90;;;;;;4932300;29;20190;-68
2022/11/02 10:40:05;;;;;;;6.30;2.17;;;16.00;99.90;;;;;;4932770;29;20430;-68
2022/11/02 10:42:38;;;;;;;6.73;2.03;;;16.20;99.90;;;;;;4924392;29;20459;-68
2022/11/02 10:45:39;;;;;;;42.37;4.70;;;16.00;99.90;;;;;;4928431;29;20585;-67
2022/11/02 10:48:23;;;;;;;86.67;9.37;;;16.10;99.90;;;;;;4924944;29;20447;-68
2022/11/02 10:51:08;;;;;;;116.50;11.47;;;16.10;99.90;;;;;;4926862;29;20760;-69
2022/11/02 10:53:45;;;;;;;122.23;15.20;;;16.10;99.90;;;;;;4921669;29;20822;-66
2022/11/02 10:56:20;;;;;;;118.47;12.30;;;16.20;99.90;;;;;;4933754;29;20418;-68
2022/11/02 10:58:54;;;;;;;14.03;3.70;;;16.20;99.90;;;;;;4932700;29;20453;-65
2022/11/02 11:01:20;;;;;;;35.50;6.37;;;16.00;99.90;;;;;;4929175;29;20519;-67
2022/11/02 11:03:58;;;;;;;27.50;4.73;;;16.10;99.90;;;;;;4926600;29;20814;-67
2022/11/02 11:06:36;;;;;;;12.37;3.00;;;16.10;99.90;;;;;;4927046;29;20762;-69
2022/11/02 11:09:24;;;;;;;20.90;4.93;;;16.10;99.90;;;;;;4930711;29;20422;-67
2022/11/02 11:11:54;;;;;;;36.80;6.00;;;16.10;99.90;;;;;;4928786;29;20462;-67
2022/11/02 11:14:22;;;;;;;127.57;14.47;;;16.00;99.90;;;;;;4932987;29;20455;-65
2022/11/02 11:16:59;;;;;;;169.60;24.53;;;16.10;99.90;;;;;;4930925;29;20930;-68
2022/11/02 11:19:35;;;;;;;131.03;15.90;;;16.10;99.90;;;;;;4924774;28;20443;-66
2022/11/02 11:22:02;;;;;;;91.47;11.07;;;16.00;99.90;;;;;;4922950;29;20438;-66
2022/11/02 11:24:30;;;;;;;75.03;9.77;;;16.00;99.90;;;;;;4928187;29;20556;-68
2022/11/02 11:27:02;;;;;;;40.90;7.60;;;16.00;99.90;;;;;;4927280;29;22287;-70
2022/11/02 11:29:36;;;;;;;37.83;6.33;;;16.00;99.90;;;;;;4929393;29;20478;-69
2022/11/02 11:32:03;;;;;;;44.60;6.23;;;16.10;99.90;;;;;;4923363;29;20528;-69
2022/11/02 11:34:32;;;;;;;23.37;4.13;;;16.10;99.90;;;;;;4932411;29;20487;-67
2022/11/02 11:37:10;;;;;;;15.73;3.73;;;16.00;99.90;;;;;;4925305;29;20434;-70
2022/11/02 11:39:39;;;;;;;27.70;5.07;;;16.00;99.90;;;;;;4923710;29;20918;-67
2022/11/02 11:42:17;;;;;;;46.10;7.10;;;15.90;99.90;;;;;;4925744;29;20450;-66
2022/11/02 11:44:53;;;;;;;47.20;8.63;;;16.00;99.90;;;;;;4928090;29;21103;-68
2022/11/02 11:47:25;;;;;;;15.20;3.10;;;16.00;99.90;;;;;;4930316;29;20837;-67
2022/11/02 11:49:52;;;;;;;19.80;3.60;;;15.90;99.90;;;;;;4930291;29;20440;-67
2022/11/02 11:52:30;;;;;;;48.63;5.57;;;15.90;99.90;;;;;;4922871;29;20438;-68
2022/11/02 11:54:58;;;;;;;18.20;4.07;;;16.00;99.90;;;;;;4929182;29;20461;-67
2022/11/02 11:57:32;;;;;;;87.37;10.40;;;16.00;99.90;;;;;;4931095;29;20454;-67
2022/11/02 12:00:22;;;;;;;36.50;7.63;;;16.00;99.90;;;;;;4926587;29;20426;-67
2022/11/02 12:03:05;;;;;;;77.03;8.23;;;16.00;99.90;;;;;;4919812;29;20528;-65
2022/11/02 12:05:45;;;;;;;43.27;5.20;;;16.00;99.90;;;;;;4932896;29;20454;-69
2022/11/02 12:08:21;;;;;;;13.60;3.20;;;16.10;99.90;;;;;;4927848;29;20998;-67
2022/11/02 12:10:59;;;;;;;9.20;3.77;;;16.10;99.90;;;;;;4930365;29;21189;-66
2022/11/02 12:13:43;;;;;;;9.10;3.30;;;16.10;99.90;;;;;;4932516;29;20768;-67
2022/11/02 12:16:23;;;;;;;38.33;6.57;;;16.20;99.90;;;;;;4931729;29;20484;-65
2022/11/02 12:19:09;;;;;;;19.20;3.60;;;16.20;99.90;;;;;;4929219;29;20457;-66
2022/11/02 12:21:59;;;;;;;46.77;6.43;;;16.10;99.90;;;;;;4927034;29;20448;-68
2022/11/02 12:24:53;;;;;;;8.37;2.80;;;16.20;99.90;;;;;;4928628;29;20557;-68
2022/11/02 12:27:58;;;;;;;17.97;3.90;;;16.20;99.90;;;;;;4924785;29;20435;-68
2022/11/02 12:30:44;;;;;;;26.93;5.40;;;16.20;99.90;;;;;;4927704;29;20582;-67
2022/11/02 12:33:28;;;;;;;68.00;7.87;;;16.10;99.90;;;;;;4921885;29;20439;-67
2022/11/02 12:36:37;;;;;;;31.30;4.90;;;16.10;99.90;;;;;;4928525;29;20466;-65
2022/11/02 12:39:07;;;;;;;79.27;8.87;;;16.00;99.90;;;;;;4929116;29;20430;-67
2022/11/02 12:41:50;;;;;;;45.60;5.60;;;16.20;99.90;;;;;;4932254;29;20438;-67
2022/11/02 12:44:43;;;;;;;92.90;12.77;;;16.10;99.90;;;;;;4932841;29;20517;-67
2022/11/02 12:47:40;;;;;;;22.63;5.50;;;16.10;99.90;;;;;;4930108;29;20438;-66
2022/11/02 12:50:31;;;;;;;44.80;5.23;;;16.00;99.90;;;;;;4932372;29;20470;-67
2022/11/02 12:53:03;;;;;;;16.13;3.90;;;16.10;99.90;;;;;;4925690;29;20431;-67
2022/11/02 12:55:38;;;;;;;8.77;2.20;;;16.20;99.90;;;;;;4932965;29;20782;-68
2022/11/02 12:58:09;;;;;;;4.83;2.10;;;16.30;99.90;;;;;;4927116;29;20427;-68
2022/11/02 13:00:39;;;;;;;8.57;2.67;;;16.20;99.90;;;;;;4931669;29;20442;-67
2022/11/02 13:03:30;;;;;;;10.67;3.50;;;16.20;99.90;;;;;;4932670;29;20936;-68
2022/11/02 13:06:05;;;;;;;84.90;10.37;;;16.10;99.90;;;;;;4924266;29;20482;-67
2022/11/02 13:08:58;;;;;;;294.27;29.43;;;16.10;99.90;;;;;;4926157;29;20954;-68
2022/11/02 13:11:43;;;;;;;154.13;16.80;;;16.10;99.90;;;;;;4923881;29;20474;-68
2022/11/02 13:14:17;;;;;;;156.70;18.20;;;16.20;99.90;;;;;;4930638;29;20458;-68
2022/11/02 13:17:00;;;;;;;104.97;15.07;;;16.30;99.90;;;;;;4931172;29;20542;-67
2022/11/02 13:19:35;;;;;;;38.97;6.67;;;16.30;99.90;;;;;;4932211;29;20769;-68